sensor_id;sensor_type;location;lat;lon;timestamp;P1;durP1;ratioP1;P2;durP2;ratioP2
18568;SDS011;14780;48.316;-1.050;2022-10-24T00:01:30;5.43;;;2.75;;
18568;SDS011;14780;48.316;-1.050;2022-10-24T00:04:15;7.60;;;2.90;;
18568;SDS011;14780;48.316;-1.050;2022-10-24T00:07:00;6.90;;;2.83;;
18568;SDS011;14780;48.316;-1.050;2022-10-24T00:09:46;4.40;;;2.42;;
18568;SDS011;14780;48.316;-1.050;2022-10-24T00:12:30;5.43;;;2.78;;
18568;SDS011;14780;48.316;-1.050;2022-10-24T00:15:15;6.65;;;2.88;;
18568;SDS011;14780;48.316;-1.050;2022-10-24T00:17:59;6.63;;;2.83;;
18568;SDS011;14780;48.316;-1.050;2022-10-24T00:20:44;4.97;;;2.58;;
18568;SDS011;14780;48.316;-1.050;2022-10-24T00:23:29;6.80;;;2.92;;
18568;SDS011;14780;48.316;-1.050;2022-10-24T00:26:14;6.28;;;2.80;;
18568;SDS011;14780;48.316;-1.050;2022-10-24T00:29:00;6.30;;;2.85;;
18568;SDS011;14780;48.316;-1.050;2022-10-24T00:31:45;5.80;;;2.60;;
18568;SDS011;14780;48.316;-1.050;2022-10-24T00:34:30;6.72;;;2.80;;
18568;SDS011;14780;48.316;-1.050;2022-10-24T00:37:15;6.25;;;2.70;;
18568;SDS011;14780;48.316;-1.050;2022-10-24T00:39:59;5.93;;;2.70;;
18568;SDS011;14780;48.316;-1.050;2022-10-24T00:42:45;6.45;;;2.83;;
18568;SDS011;14780;48.316;-1.050;2022-10-24T00:45:45;5.65;;;2.60;;
18568;SDS011;14780;48.316;-1.050;2022-10-24T00:48:36;5.97;;;2.53;;
18568;SDS011;14780;48.316;-1.050;2022-10-24T00:51:25;5.68;;;2.28;;
18568;SDS011;14780;48.316;-1.050;2022-10-24T00:54:13;9.48;;;2.80;;
18568;SDS011;14780;48.316;-1.050;2022-10-24T00:57:06;6.22;;;2.88;;
18568;SDS011;14780;48.316;-1.050;2022-10-24T01:00:06;7.28;;;3.30;;
18568;SDS011;14780;48.316;-1.050;2022-10-24T01:02:54;6.03;;;2.72;;
18568;SDS011;14780;48.316;-1.050;2022-10-24T01:08:48;7.20;;;2.78;;
18568;SDS011;14780;48.316;-1.050;2022-10-24T01:17:38;5.85;;;2.80;;
18568;SDS011;14780;48.316;-1.050;2022-10-24T01:29:55;5.10;;;2.55;;
18568;SDS011;14780;48.316;-1.050;2022-10-24T01:32:57;7.32;;;3.13;;
18568;SDS011;14780;48.316;-1.050;2022-10-24T01:35:54;5.50;;;2.85;;
18568;SDS011;14780;48.316;-1.050;2022-10-24T01:38:53;5.45;;;2.75;;
18568;SDS011;14780;48.316;-1.050;2022-10-24T01:41:42;6.88;;;2.60;;
18568;SDS011;14780;48.316;-1.050;2022-10-24T01:44:31;7.75;;;3.25;;
18568;SDS011;14780;48.316;-1.050;2022-10-24T01:47:21;5.55;;;2.58;;
18568;SDS011;14780;48.316;-1.050;2022-10-24T01:52:57;6.90;;;3.00;;
18568;SDS011;14780;48.316;-1.050;2022-10-24T01:55:43;5.22;;;2.58;;
18568;SDS011;14780;48.316;-1.050;2022-10-24T01:58:29;5.00;;;2.75;;
18568;SDS011;14780;48.316;-1.050;2022-10-24T02:01:15;6.68;;;2.60;;
18568;SDS011;14780;48.316;-1.050;2022-10-24T02:04:05;6.57;;;2.70;;
18568;SDS011;14780;48.316;-1.050;2022-10-24T02:06:53;4.38;;;2.25;;
18568;SDS011;14780;48.316;-1.050;2022-10-24T02:09:43;6.35;;;2.97;;
18568;SDS011;14780;48.316;-1.050;2022-10-24T02:12:30;5.75;;;2.60;;
18568;SDS011;14780;48.316;-1.050;2022-10-24T02:15:18;4.50;;;2.40;;
18568;SDS011;14780;48.316;-1.050;2022-10-24T02:18:10;7.78;;;2.70;;
18568;SDS011;14780;48.316;-1.050;2022-10-24T02:24:04;5.50;;;2.75;;
18568;SDS011;14780;48.316;-1.050;2022-10-24T02:26:50;6.20;;;2.83;;
18568;SDS011;14780;48.316;-1.050;2022-10-24T02:32:45;4.07;;;2.00;;
18568;SDS011;14780;48.316;-1.050;2022-10-24T02:35:38;4.68;;;2.55;;
18568;SDS011;14780;48.316;-1.050;2022-10-24T02:38:38;4.90;;;2.55;;
18568;SDS011;14780;48.316;-1.050;2022-10-24T02:41:31;5.60;;;2.40;;
18568;SDS011;14780;48.316;-1.050;2022-10-24T02:44:18;5.63;;;2.45;;
18568;SDS011;14780;48.316;-1.050;2022-10-24T02:47:04;6.22;;;2.60;;
18568;SDS011;14780;48.316;-1.050;2022-10-24T02:49:51;4.75;;;2.30;;
18568;SDS011;14780;48.316;-1.050;2022-10-24T02:52:37;4.65;;;2.20;;
18568;SDS011;14780;48.316;-1.050;2022-10-24T02:55:24;8.13;;;2.70;;
18568;SDS011;14780;48.316;-1.050;2022-10-24T02:58:09;6.88;;;2.50;;
18568;SDS011;14780;48.316;-1.050;2022-10-24T03:00:53;6.47;;;2.40;;
18568;SDS011;14780;48.316;-1.050;2022-10-24T03:03:39;4.75;;;2.10;;
18568;SDS011;14780;48.316;-1.050;2022-10-24T03:06:23;5.38;;;2.45;;
18568;SDS011;14780;48.316;-1.050;2022-10-24T03:09:08;6.18;;;2.40;;
18568;SDS011;14780;48.316;-1.050;2022-10-24T03:11:53;4.35;;;2.05;;
18568;SDS011;14780;48.316;-1.050;2022-10-24T03:14:37;4.72;;;2.00;;
18568;SDS011;14780;48.316;-1.050;2022-10-24T03:17:22;5.05;;;2.33;;
18568;SDS011;14780;48.316;-1.050;2022-10-24T03:20:07;3.95;;;2.20;;
18568;SDS011;14780;48.316;-1.050;2022-10-24T03:22:52;4.60;;;2.42;;
18568;SDS011;14780;48.316;-1.050;2022-10-24T03:25:36;3.72;;;2.00;;
18568;SDS011;14780;48.316;-1.050;2022-10-24T03:28:21;5.13;;;2.15;;
18568;SDS011;14780;48.316;-1.050;2022-10-24T03:31:06;3.63;;;2.00;;
18568;SDS011;14780;48.316;-1.050;2022-10-24T03:33:52;5.18;;;2.33;;
18568;SDS011;14780;48.316;-1.050;2022-10-24T03:36:36;5.70;;;2.38;;
18568;SDS011;14780;48.316;-1.050;2022-10-24T03:39:21;5.38;;;2.25;;
18568;SDS011;14780;48.316;-1.050;2022-10-24T03:42:05;3.75;;;2.10;;
18568;SDS011;14780;48.316;-1.050;2022-10-24T03:44:50;4.28;;;2.10;;
18568;SDS011;14780;48.316;-1.050;2022-10-24T03:47:35;5.20;;;2.10;;
18568;SDS011;14780;48.316;-1.050;2022-10-24T03:50:19;5.82;;;2.40;;
18568;SDS011;14780;48.316;-1.050;2022-10-24T03:53:04;3.92;;;2.17;;
18568;SDS011;14780;48.316;-1.050;2022-10-24T03:55:49;4.65;;;2.20;;
18568;SDS011;14780;48.316;-1.050;2022-10-24T03:58:34;4.65;;;1.88;;
18568;SDS011;14780;48.316;-1.050;2022-10-24T04:01:18;4.80;;;2.10;;
18568;SDS011;14780;48.316;-1.050;2022-10-24T04:04:04;5.22;;;2.40;;
18568;SDS011;14780;48.316;-1.050;2022-10-24T04:06:49;3.75;;;1.95;;
18568;SDS011;14780;48.316;-1.050;2022-10-24T04:09:34;5.28;;;2.13;;
18568;SDS011;14780;48.316;-1.050;2022-10-24T04:12:19;3.45;;;1.70;;
18568;SDS011;14780;48.316;-1.050;2022-10-24T04:15:03;4.03;;;2.00;;
18568;SDS011;14780;48.316;-1.050;2022-10-24T04:17:48;4.15;;;1.83;;
18568;SDS011;14780;48.316;-1.050;2022-10-24T04:20:33;4.75;;;2.17;;
18568;SDS011;14780;48.316;-1.050;2022-10-24T04:23:18;3.95;;;2.17;;
18568;SDS011;14780;48.316;-1.050;2022-10-24T04:26:03;3.03;;;2.00;;
18568;SDS011;14780;48.316;-1.050;2022-10-24T04:28:48;3.83;;;2.00;;
18568;SDS011;14780;48.316;-1.050;2022-10-24T04:31:33;4.90;;;1.90;;
18568;SDS011;14780;48.316;-1.050;2022-10-24T04:34:17;3.13;;;1.83;;
18568;SDS011;14780;48.316;-1.050;2022-10-24T04:37:02;3.72;;;1.83;;
18568;SDS011;14780;48.316;-1.050;2022-10-24T04:39:47;2.72;;;1.60;;
18568;SDS011;14780;48.316;-1.050;2022-10-24T04:42:32;4.80;;;2.17;;
18568;SDS011;14780;48.316;-1.050;2022-10-24T04:45:17;2.85;;;1.67;;
18568;SDS011;14780;48.316;-1.050;2022-10-24T04:48:02;3.45;;;2.08;;
18568;SDS011;14780;48.316;-1.050;2022-10-24T04:50:46;3.42;;;2.00;;
18568;SDS011;14780;48.316;-1.050;2022-10-24T04:53:31;2.92;;;1.75;;
18568;SDS011;14780;48.316;-1.050;2022-10-24T04:56:16;3.00;;;1.70;;
18568;SDS011;14780;48.316;-1.050;2022-10-24T04:59:02;4.82;;;2.00;;
18568;SDS011;14780;48.316;-1.050;2022-10-24T05:01:46;4.18;;;1.95;;
18568;SDS011;14780;48.316;-1.050;2022-10-24T05:04:31;3.65;;;1.70;;
18568;SDS011;14780;48.316;-1.050;2022-10-24T05:07:15;2.75;;;1.83;;
18568;SDS011;14780;48.316;-1.050;2022-10-24T05:10:03;3.53;;;1.58;;
18568;SDS011;14780;48.316;-1.050;2022-10-24T05:12:48;3.40;;;1.75;;
18568;SDS011;14780;48.316;-1.050;2022-10-24T05:15:33;4.13;;;1.90;;
18568;SDS011;14780;48.316;-1.050;2022-10-24T05:18:18;2.92;;;1.85;;
18568;SDS011;14780;48.316;-1.050;2022-10-24T05:21:03;3.95;;;2.10;;
18568;SDS011;14780;48.316;-1.050;2022-10-24T05:23:48;3.53;;;2.10;;
18568;SDS011;14780;48.316;-1.050;2022-10-24T05:26:34;3.67;;;1.98;;
18568;SDS011;14780;48.316;-1.050;2022-10-24T05:29:18;3.08;;;1.80;;
18568;SDS011;14780;48.316;-1.050;2022-10-24T05:32:03;4.68;;;2.00;;
18568;SDS011;14780;48.316;-1.050;2022-10-24T05:34:47;3.35;;;1.85;;
18568;SDS011;14780;48.316;-1.050;2022-10-24T05:37:33;5.85;;;1.85;;
18568;SDS011;14780;48.316;-1.050;2022-10-24T05:40:18;4.00;;;2.08;;
18568;SDS011;14780;48.316;-1.050;2022-10-24T05:43:03;4.15;;;2.53;;
18568;SDS011;14780;48.316;-1.050;2022-10-24T05:45:48;4.90;;;2.47;;
18568;SDS011;14780;48.316;-1.050;2022-10-24T05:48:33;6.60;;;2.67;;
18568;SDS011;14780;48.316;-1.050;2022-10-24T05:51:18;4.20;;;2.80;;
18568;SDS011;14780;48.316;-1.050;2022-10-24T05:54:03;6.05;;;2.95;;
18568;SDS011;14780;48.316;-1.050;2022-10-24T05:56:49;5.53;;;2.75;;
18568;SDS011;14780;48.316;-1.050;2022-10-24T05:59:34;5.55;;;3.15;;
18568;SDS011;14780;48.316;-1.050;2022-10-24T06:02:19;5.53;;;2.83;;
18568;SDS011;14780;48.316;-1.050;2022-10-24T06:05:04;4.45;;;2.42;;
18568;SDS011;14780;48.316;-1.050;2022-10-24T06:07:50;4.82;;;2.60;;
18568;SDS011;14780;48.316;-1.050;2022-10-24T06:10:35;3.78;;;2.50;;
18568;SDS011;14780;48.316;-1.050;2022-10-24T06:13:20;5.65;;;2.95;;
18568;SDS011;14780;48.316;-1.050;2022-10-24T06:16:05;8.10;;;2.92;;
18568;SDS011;14780;48.316;-1.050;2022-10-24T06:18:50;6.38;;;3.20;;
18568;SDS011;14780;48.316;-1.050;2022-10-24T06:21:36;8.13;;;3.30;;
18568;SDS011;14780;48.316;-1.050;2022-10-24T06:24:20;7.10;;;3.42;;
18568;SDS011;14780;48.316;-1.050;2022-10-24T06:27:05;6.18;;;2.83;;
18568;SDS011;14780;48.316;-1.050;2022-10-24T06:29:50;9.40;;;3.08;;
18568;SDS011;14780;48.316;-1.050;2022-10-24T06:32:34;6.32;;;3.20;;
18568;SDS011;14780;48.316;-1.050;2022-10-24T06:35:19;9.27;;;2.83;;
18568;SDS011;14780;48.316;-1.050;2022-10-24T06:38:04;5.10;;;2.83;;
18568;SDS011;14780;48.316;-1.050;2022-10-24T06:40:49;7.07;;;3.47;;
18568;SDS011;14780;48.316;-1.050;2022-10-24T06:43:33;9.18;;;3.50;;
18568;SDS011;14780;48.316;-1.050;2022-10-24T06:46:20;8.40;;;3.20;;
18568;SDS011;14780;48.316;-1.050;2022-10-24T06:49:06;5.95;;;3.00;;
18568;SDS011;14780;48.316;-1.050;2022-10-24T06:51:51;5.30;;;2.85;;
18568;SDS011;14780;48.316;-1.050;2022-10-24T06:54:36;7.57;;;3.20;;
18568;SDS011;14780;48.316;-1.050;2022-10-24T06:57:21;4.43;;;2.55;;
18568;SDS011;14780;48.316;-1.050;2022-10-24T07:00:06;5.15;;;2.70;;
18568;SDS011;14780;48.316;-1.050;2022-10-24T07:02:52;6.60;;;2.60;;
18568;SDS011;14780;48.316;-1.050;2022-10-24T07:05:37;4.95;;;2.75;;
18568;SDS011;14780;48.316;-1.050;2022-10-24T07:08:22;5.22;;;2.90;;
18568;SDS011;14780;48.316;-1.050;2022-10-24T07:11:07;7.55;;;2.75;;
18568;SDS011;14780;48.316;-1.050;2022-10-24T07:13:52;7.07;;;3.00;;
18568;SDS011;14780;48.316;-1.050;2022-10-24T07:16:36;5.60;;;2.78;;
18568;SDS011;14780;48.316;-1.050;2022-10-24T07:19:22;5.82;;;2.85;;
18568;SDS011;14780;48.316;-1.050;2022-10-24T07:22:07;5.00;;;2.60;;
18568;SDS011;14780;48.316;-1.050;2022-10-24T07:24:52;5.32;;;2.90;;
18568;SDS011;14780;48.316;-1.050;2022-10-24T07:27:38;7.25;;;3.10;;
18568;SDS011;14780;48.316;-1.050;2022-10-24T07:30:23;7.63;;;3.08;;
18568;SDS011;14780;48.316;-1.050;2022-10-24T07:33:08;4.50;;;2.58;;
18568;SDS011;14780;48.316;-1.050;2022-10-24T07:35:53;8.13;;;2.75;;
18568;SDS011;14780;48.316;-1.050;2022-10-24T07:38:38;6.65;;;2.92;;
18568;SDS011;14780;48.316;-1.050;2022-10-24T07:41:23;5.78;;;2.70;;
18568;SDS011;14780;48.316;-1.050;2022-10-24T07:44:10;6.22;;;3.00;;
18568;SDS011;14780;48.316;-1.050;2022-10-24T07:46:55;6.72;;;2.80;;
18568;SDS011;14780;48.316;-1.050;2022-10-24T07:49:39;6.55;;;2.40;;
18568;SDS011;14780;48.316;-1.050;2022-10-24T07:52:24;4.80;;;2.67;;
18568;SDS011;14780;48.316;-1.050;2022-10-24T07:55:08;6.13;;;2.53;;
18568;SDS011;14780;48.316;-1.050;2022-10-24T07:57:54;4.78;;;2.65;;
18568;SDS011;14780;48.316;-1.050;2022-10-24T08:00:38;7.63;;;3.00;;
18568;SDS011;14780;48.316;-1.050;2022-10-24T08:03:23;6.30;;;2.85;;
18568;SDS011;14780;48.316;-1.050;2022-10-24T08:06:09;5.22;;;2.92;;
18568;SDS011;14780;48.316;-1.050;2022-10-24T08:08:56;7.55;;;2.88;;
18568;SDS011;14780;48.316;-1.050;2022-10-24T08:11:41;5.50;;;2.58;;
18568;SDS011;14780;48.316;-1.050;2022-10-24T08:14:25;5.28;;;3.00;;
18568;SDS011;14780;48.316;-1.050;2022-10-24T08:17:10;4.97;;;2.53;;
18568;SDS011;14780;48.316;-1.050;2022-10-24T08:19:55;6.97;;;2.90;;
18568;SDS011;14780;48.316;-1.050;2022-10-24T08:22:40;9.93;;;3.45;;
18568;SDS011;14780;48.316;-1.050;2022-10-24T08:25:25;9.77;;;3.25;;
18568;SDS011;14780;48.316;-1.050;2022-10-24T08:28:09;11.95;;;3.83;;
18568;SDS011;14780;48.316;-1.050;2022-10-24T08:30:57;15.02;;;4.50;;
18568;SDS011;14780;48.316;-1.050;2022-10-24T08:33:49;10.23;;;4.07;;
18568;SDS011;14780;48.316;-1.050;2022-10-24T08:36:36;12.23;;;4.53;;
18568;SDS011;14780;48.316;-1.050;2022-10-24T08:39:20;14.65;;;5.25;;
18568;SDS011;14780;48.316;-1.050;2022-10-24T08:42:06;12.98;;;4.68;;
18568;SDS011;14780;48.316;-1.050;2022-10-24T08:44:55;11.05;;;4.15;;
18568;SDS011;14780;48.316;-1.050;2022-10-24T08:47:41;9.45;;;3.58;;
18568;SDS011;14780;48.316;-1.050;2022-10-24T08:50:37;8.15;;;3.80;;
18568;SDS011;14780;48.316;-1.050;2022-10-24T08:53:30;12.50;;;3.70;;
18568;SDS011;14780;48.316;-1.050;2022-10-24T08:56:15;11.52;;;3.95;;
18568;SDS011;14780;48.316;-1.050;2022-10-24T08:59:00;12.32;;;4.00;;
18568;SDS011;14780;48.316;-1.050;2022-10-24T09:01:49;9.55;;;3.65;;
18568;SDS011;14780;48.316;-1.050;2022-10-24T09:04:57;10.15;;;3.75;;
18568;SDS011;14780;48.316;-1.050;2022-10-24T09:07:45;10.27;;;4.10;;
18568;SDS011;14780;48.316;-1.050;2022-10-24T09:11:06;6.85;;;3.13;;
18568;SDS011;14780;48.316;-1.050;2022-10-24T09:13:46;12.52;;;4.22;;
18568;SDS011;14780;48.316;-1.050;2022-10-24T09:16:31;9.75;;;4.10;;
18568;SDS011;14780;48.316;-1.050;2022-10-24T09:19:16;9.13;;;3.35;;
18568;SDS011;14780;48.316;-1.050;2022-10-24T09:22:03;13.63;;;3.90;;
18568;SDS011;14780;48.316;-1.050;2022-10-24T09:24:57;8.32;;;3.65;;
18568;SDS011;14780;48.316;-1.050;2022-10-24T09:27:50;10.45;;;3.50;;
18568;SDS011;14780;48.316;-1.050;2022-10-24T09:30:35;8.00;;;3.20;;
18568;SDS011;14780;48.316;-1.050;2022-10-24T09:33:27;9.63;;;3.35;;
18568;SDS011;14780;48.316;-1.050;2022-10-24T09:36:15;10.57;;;3.45;;
18568;SDS011;14780;48.316;-1.050;2022-10-24T09:42:10;10.00;;;3.35;;
18568;SDS011;14780;48.316;-1.050;2022-10-24T09:45:17;8.85;;;3.67;;
18568;SDS011;14780;48.316;-1.050;2022-10-24T09:48:03;8.00;;;3.42;;
18568;SDS011;14780;48.316;-1.050;2022-10-24T09:50:57;7.97;;;3.17;;
18568;SDS011;14780;48.316;-1.050;2022-10-24T09:53:56;7.93;;;3.60;;
18568;SDS011;14780;48.316;-1.050;2022-10-24T09:56:48;9.30;;;3.70;;
18568;SDS011;14780;48.316;-1.050;2022-10-24T09:59:57;9.13;;;3.72;;
18568;SDS011;14780;48.316;-1.050;2022-10-24T10:02:43;7.05;;;3.30;;
18568;SDS011;14780;48.316;-1.050;2022-10-24T10:06:02;9.05;;;3.97;;
18568;SDS011;14780;48.316;-1.050;2022-10-24T10:08:59;9.50;;;3.80;;
18568;SDS011;14780;48.316;-1.050;2022-10-24T10:11:45;8.88;;;3.53;;
18568;SDS011;14780;48.316;-1.050;2022-10-24T10:14:39;7.68;;;3.47;;
18568;SDS011;14780;48.316;-1.050;2022-10-24T10:17:26;7.50;;;3.55;;
18568;SDS011;14780;48.316;-1.050;2022-10-24T10:20:55;8.40;;;3.35;;
18568;SDS011;14780;48.316;-1.050;2022-10-24T10:29:29;8.60;;;3.15;;
18568;SDS011;14780;48.316;-1.050;2022-10-24T10:32:32;8.77;;;3.42;;
18568;SDS011;14780;48.316;-1.050;2022-10-24T10:35:25;11.32;;;3.97;;
18568;SDS011;14780;48.316;-1.050;2022-10-24T10:41:43;9.82;;;3.30;;
18568;SDS011;14780;48.316;-1.050;2022-10-24T10:56:56;7.28;;;3.25;;
18568;SDS011;14780;48.316;-1.050;2022-10-24T11:02:54;7.28;;;3.35;;
18568;SDS011;14780;48.316;-1.050;2022-10-24T11:11:31;6.03;;;2.77;;
18568;SDS011;14780;48.316;-1.050;2022-10-24T11:20:38;6.88;;;3.17;;
18568;SDS011;14780;48.316;-1.050;2022-10-24T11:26:27;7.00;;;3.13;;
18568;SDS011;14780;48.316;-1.050;2022-10-24T11:29:33;6.50;;;3.47;;
18568;SDS011;14780;48.316;-1.050;2022-10-24T11:32:43;5.60;;;2.92;;
18568;SDS011;14780;48.316;-1.050;2022-10-24T11:35:37;5.70;;;2.75;;
18568;SDS011;14780;48.316;-1.050;2022-10-24T11:38:27;5.50;;;3.00;;
18568;SDS011;14780;48.316;-1.050;2022-10-24T11:44:11;6.13;;;2.83;;
18568;SDS011;14780;48.316;-1.050;2022-10-24T11:53:42;7.15;;;2.92;;
18568;SDS011;14780;48.316;-1.050;2022-10-24T11:56:55;7.60;;;3.08;;
18568;SDS011;14780;48.316;-1.050;2022-10-24T11:59:43;6.75;;;3.15;;
18568;SDS011;14780;48.316;-1.050;2022-10-24T12:09:10;5.72;;;2.90;;
18568;SDS011;14780;48.316;-1.050;2022-10-24T12:12:10;4.78;;;2.72;;
18568;SDS011;14780;48.316;-1.050;2022-10-24T12:18:37;5.45;;;2.90;;
18568;SDS011;14780;48.316;-1.050;2022-10-24T12:21:27;7.32;;;3.03;;
18568;SDS011;14780;48.316;-1.050;2022-10-24T12:24:19;5.97;;;3.20;;
18568;SDS011;14780;48.316;-1.050;2022-10-24T12:27:18;7.82;;;3.33;;
18568;SDS011;14780;48.316;-1.050;2022-10-24T12:30:18;6.03;;;2.83;;
18568;SDS011;14780;48.316;-1.050;2022-10-24T12:33:25;6.05;;;2.80;;
18568;SDS011;14780;48.316;-1.050;2022-10-24T12:36:11;8.02;;;3.20;;
18568;SDS011;14780;48.316;-1.050;2022-10-24T12:41:41;7.40;;;3.28;;
18568;SDS011;14780;48.316;-1.050;2022-10-24T12:53:34;7.43;;;2.95;;
18568;SDS011;14780;48.316;-1.050;2022-10-24T12:56:20;6.38;;;2.70;;
18568;SDS011;14780;48.316;-1.050;2022-10-24T13:14:34;5.05;;;2.60;;
18568;SDS011;14780;48.316;-1.050;2022-10-24T13:17:53;5.38;;;2.65;;
18568;SDS011;14780;48.316;-1.050;2022-10-24T13:20:49;6.07;;;2.92;;
18568;SDS011;14780;48.316;-1.050;2022-10-24T13:27:22;5.32;;;2.38;;
18568;SDS011;14780;48.316;-1.050;2022-10-24T13:30:22;5.68;;;2.50;;
18568;SDS011;14780;48.316;-1.050;2022-10-24T13:36:17;5.35;;;2.63;;
18568;SDS011;14780;48.316;-1.050;2022-10-24T13:39:10;7.80;;;2.92;;
18568;SDS011;14780;48.316;-1.050;2022-10-24T13:42:00;5.85;;;2.63;;
18568;SDS011;14780;48.316;-1.050;2022-10-24T13:44:50;6.43;;;2.50;;
18568;SDS011;14780;48.316;-1.050;2022-10-24T13:47:43;5.20;;;2.55;;
18568;SDS011;14780;48.316;-1.050;2022-10-24T13:50:36;6.15;;;2.63;;
18568;SDS011;14780;48.316;-1.050;2022-10-24T13:53:30;4.57;;;2.33;;
18568;SDS011;14780;48.316;-1.050;2022-10-24T13:56:18;5.65;;;2.15;;
18568;SDS011;14780;48.316;-1.050;2022-10-24T13:59:03;5.05;;;2.20;;
18568;SDS011;14780;48.316;-1.050;2022-10-24T14:01:49;5.25;;;2.40;;
18568;SDS011;14780;48.316;-1.050;2022-10-24T14:04:34;4.32;;;2.33;;
18568;SDS011;14780;48.316;-1.050;2022-10-24T14:07:20;4.22;;;2.40;;
18568;SDS011;14780;48.316;-1.050;2022-10-24T14:10:13;4.25;;;2.13;;
18568;SDS011;14780;48.316;-1.050;2022-10-24T14:13:02;4.88;;;2.08;;
18568;SDS011;14780;48.316;-1.050;2022-10-24T14:15:48;5.47;;;2.75;;
18568;SDS011;14780;48.316;-1.050;2022-10-24T14:18:38;5.10;;;2.42;;
18568;SDS011;14780;48.316;-1.050;2022-10-24T14:21:26;4.57;;;2.30;;
18568;SDS011;14780;48.316;-1.050;2022-10-24T14:24:22;7.63;;;2.50;;
18568;SDS011;14780;48.316;-1.050;2022-10-24T14:27:09;5.50;;;2.33;;
18568;SDS011;14780;48.316;-1.050;2022-10-24T14:29:56;6.82;;;2.60;;
18568;SDS011;14780;48.316;-1.050;2022-10-24T14:32:44;4.18;;;2.28;;
18568;SDS011;14780;48.316;-1.050;2022-10-24T14:35:29;4.50;;;2.42;;
18568;SDS011;14780;48.316;-1.050;2022-10-24T14:38:15;6.53;;;2.40;;
18568;SDS011;14780;48.316;-1.050;2022-10-24T14:41:01;4.63;;;2.50;;
18568;SDS011;14780;48.316;-1.050;2022-10-24T14:43:48;5.90;;;2.60;;
18568;SDS011;14780;48.316;-1.050;2022-10-24T14:46:37;3.50;;;1.90;;
18568;SDS011;14780;48.316;-1.050;2022-10-24T14:49:31;4.30;;;2.03;;
18568;SDS011;14780;48.316;-1.050;2022-10-24T14:52:29;4.05;;;2.33;;
18568;SDS011;14780;48.316;-1.050;2022-10-24T14:55:22;6.05;;;2.45;;
18568;SDS011;14780;48.316;-1.050;2022-10-24T14:58:18;4.38;;;2.00;;
18568;SDS011;14780;48.316;-1.050;2022-10-24T15:01:15;5.25;;;2.20;;
18568;SDS011;14780;48.316;-1.050;2022-10-24T15:04:02;4.47;;;1.80;;
18568;SDS011;14780;48.316;-1.050;2022-10-24T15:06:48;4.43;;;2.20;;
18568;SDS011;14780;48.316;-1.050;2022-10-24T15:09:49;6.85;;;2.30;;
18568;SDS011;14780;48.316;-1.050;2022-10-24T15:15:58;3.95;;;2.20;;
18568;SDS011;14780;48.316;-1.050;2022-10-24T15:18:44;3.22;;;2.08;;
18568;SDS011;14780;48.316;-1.050;2022-10-24T15:21:36;5.93;;;2.20;;
18568;SDS011;14780;48.316;-1.050;2022-10-24T15:24:23;3.65;;;2.20;;
18568;SDS011;14780;48.316;-1.050;2022-10-24T15:27:20;3.75;;;2.00;;
18568;SDS011;14780;48.316;-1.050;2022-10-24T15:30:14;4.57;;;2.17;;
18568;SDS011;14780;48.316;-1.050;2022-10-24T15:33:01;4.07;;;2.03;;
18568;SDS011;14780;48.316;-1.050;2022-10-24T15:35:48;4.07;;;2.00;;
18568;SDS011;14780;48.316;-1.050;2022-10-24T15:38:33;4.70;;;2.22;;
18568;SDS011;14780;48.316;-1.050;2022-10-24T15:41:17;3.90;;;2.08;;
18568;SDS011;14780;48.316;-1.050;2022-10-24T15:44:04;3.55;;;2.03;;
18568;SDS011;14780;48.316;-1.050;2022-10-24T15:47:10;3.65;;;2.13;;
18568;SDS011;14780;48.316;-1.050;2022-10-24T15:49:55;4.47;;;2.28;;
18568;SDS011;14780;48.316;-1.050;2022-10-24T15:52:39;6.47;;;2.30;;
18568;SDS011;14780;48.316;-1.050;2022-10-24T15:55:26;6.32;;;2.40;;
18568;SDS011;14780;48.316;-1.050;2022-10-24T15:58:14;4.95;;;2.13;;
18568;SDS011;14780;48.316;-1.050;2022-10-24T16:01:00;3.60;;;2.15;;
18568;SDS011;14780;48.316;-1.050;2022-10-24T16:03:45;3.10;;;1.90;;
18568;SDS011;14780;48.316;-1.050;2022-10-24T16:06:30;5.43;;;2.05;;
18568;SDS011;14780;48.316;-1.050;2022-10-24T16:09:18;3.13;;;1.98;;
18568;SDS011;14780;48.316;-1.050;2022-10-24T16:12:05;4.78;;;2.30;;
18568;SDS011;14780;48.316;-1.050;2022-10-24T16:14:50;3.67;;;1.90;;
18568;SDS011;14780;48.316;-1.050;2022-10-24T16:17:34;4.63;;;2.20;;
18568;SDS011;14780;48.316;-1.050;2022-10-24T16:20:19;3.78;;;2.10;;
18568;SDS011;14780;48.316;-1.050;2022-10-24T16:23:04;5.28;;;1.90;;
18568;SDS011;14780;48.316;-1.050;2022-10-24T16:25:50;3.65;;;1.70;;
18568;SDS011;14780;48.316;-1.050;2022-10-24T16:28:35;2.60;;;1.50;;
18568;SDS011;14780;48.316;-1.050;2022-10-24T16:31:20;3.67;;;2.00;;
18568;SDS011;14780;48.316;-1.050;2022-10-24T16:34:06;3.83;;;2.05;;
18568;SDS011;14780;48.316;-1.050;2022-10-24T16:36:52;4.03;;;1.90;;
18568;SDS011;14780;48.316;-1.050;2022-10-24T16:39:37;4.70;;;1.77;;
18568;SDS011;14780;48.316;-1.050;2022-10-24T16:42:22;5.28;;;2.00;;
18568;SDS011;14780;48.316;-1.050;2022-10-24T16:45:07;3.85;;;2.10;;
18568;SDS011;14780;48.316;-1.050;2022-10-24T16:47:52;5.22;;;2.13;;
18568;SDS011;14780;48.316;-1.050;2022-10-24T16:50:38;3.17;;;1.90;;
18568;SDS011;14780;48.316;-1.050;2022-10-24T16:53:27;2.95;;;1.92;;
18568;SDS011;14780;48.316;-1.050;2022-10-24T16:56:12;4.68;;;2.13;;
18568;SDS011;14780;48.316;-1.050;2022-10-24T16:58:58;5.28;;;2.00;;
18568;SDS011;14780;48.316;-1.050;2022-10-24T17:01:42;2.53;;;1.60;;
18568;SDS011;14780;48.316;-1.050;2022-10-24T17:04:27;2.67;;;1.77;;
18568;SDS011;14780;48.316;-1.050;2022-10-24T17:07:12;4.60;;;1.90;;
18568;SDS011;14780;48.316;-1.050;2022-10-24T17:09:57;3.35;;;1.85;;
18568;SDS011;14780;48.316;-1.050;2022-10-24T17:12:44;5.07;;;1.95;;
18568;SDS011;14780;48.316;-1.050;2022-10-24T17:15:29;4.40;;;2.00;;
18568;SDS011;14780;48.316;-1.050;2022-10-24T17:18:14;3.08;;;1.83;;
18568;SDS011;14780;48.316;-1.050;2022-10-24T17:21:02;4.90;;;2.47;;
18568;SDS011;14780;48.316;-1.050;2022-10-24T17:23:47;4.82;;;1.83;;
18568;SDS011;14780;48.316;-1.050;2022-10-24T17:26:33;4.60;;;2.33;;
18568;SDS011;14780;48.316;-1.050;2022-10-24T17:29:29;2.28;;;1.52;;
18568;SDS011;14780;48.316;-1.050;2022-10-24T17:32:16;3.47;;;1.95;;
18568;SDS011;14780;48.316;-1.050;2022-10-24T17:35:01;2.70;;;1.80;;
18568;SDS011;14780;48.316;-1.050;2022-10-24T17:37:49;4.88;;;2.20;;
18568;SDS011;14780;48.316;-1.050;2022-10-24T17:40:43;4.22;;;2.00;;
18568;SDS011;14780;48.316;-1.050;2022-10-24T17:43:30;6.30;;;2.15;;
18568;SDS011;14780;48.316;-1.050;2022-10-24T17:46:15;4.95;;;2.30;;
18568;SDS011;14780;48.316;-1.050;2022-10-24T17:49:00;4.20;;;2.30;;
18568;SDS011;14780;48.316;-1.050;2022-10-24T17:51:45;6.70;;;2.85;;
18568;SDS011;14780;48.316;-1.050;2022-10-24T17:54:30;20.98;;;7.03;;
18568;SDS011;14780;48.316;-1.050;2022-10-24T17:57:15;20.35;;;7.65;;
18568;SDS011;14780;48.316;-1.050;2022-10-24T18:00:00;15.82;;;6.10;;
18568;SDS011;14780;48.316;-1.050;2022-10-24T18:02:45;18.52;;;6.80;;
18568;SDS011;14780;48.316;-1.050;2022-10-24T18:05:31;13.57;;;5.82;;
18568;SDS011;14780;48.316;-1.050;2022-10-24T18:08:20;20.88;;;6.50;;
18568;SDS011;14780;48.316;-1.050;2022-10-24T18:11:05;15.80;;;5.53;;
18568;SDS011;14780;48.316;-1.050;2022-10-24T18:13:53;16.58;;;5.47;;
18568;SDS011;14780;48.316;-1.050;2022-10-24T18:16:38;10.63;;;5.47;;
18568;SDS011;14780;48.316;-1.050;2022-10-24T18:19:23;15.55;;;4.82;;
18568;SDS011;14780;48.316;-1.050;2022-10-24T18:22:07;15.23;;;5.00;;
18568;SDS011;14780;48.316;-1.050;2022-10-24T18:24:52;12.98;;;5.22;;
18568;SDS011;14780;48.316;-1.050;2022-10-24T18:27:37;12.70;;;4.45;;
18568;SDS011;14780;48.316;-1.050;2022-10-24T18:30:23;11.13;;;5.05;;
18568;SDS011;14780;48.316;-1.050;2022-10-24T18:33:09;15.75;;;4.85;;
18568;SDS011;14780;48.316;-1.050;2022-10-24T18:35:54;10.52;;;4.95;;
18568;SDS011;14780;48.316;-1.050;2022-10-24T18:38:39;11.38;;;4.38;;
18568;SDS011;14780;48.316;-1.050;2022-10-24T18:44:25;10.73;;;4.38;;
18568;SDS011;14780;48.316;-1.050;2022-10-24T18:47:14;9.82;;;4.30;;